createdAt,value
2022-08-25T00:01:54.160Z,23.60
2022-08-25T00:04:56.203Z,23.60
2022-08-25T00:07:59.032Z,23.60
2022-08-25T00:11:03.583Z,23.50
2022-08-25T00:14:13.535Z,23.20
2022-08-25T00:17:15.286Z,23.30
2022-08-25T00:20:17.607Z,23.30
2022-08-25T00:23:20.216Z,23.30
2022-08-25T00:26:22.377Z,23.30
2022-08-25T00:29:28.409Z,23.40
2022-08-25T00:32:30.278Z,23.40
2022-08-25T00:35:32.152Z,23.40
2022-08-25T00:38:34.062Z,23.40
2022-08-25T00:41:37.499Z,23.40
2022-08-25T00:44:39.445Z,23.30
2022-08-25T00:47:41.449Z,23.30
2022-08-25T00:50:43.204Z,23.20
2022-08-25T00:53:46.097Z,23.10
2022-08-25T00:56:48.956Z,23.20
2022-08-25T00:59:51.477Z,23.30
2022-08-25T01:02:53.607Z,23.30
2022-08-25T01:05:56.912Z,23.40
2022-08-25T01:09:00.349Z,23.30
2022-08-25T01:12:02.567Z,23.30
2022-08-25T01:15:08.988Z,23.20
2022-08-25T01:18:11.817Z,23.20
2022-08-25T01:21:13.780Z,23.10
2022-08-25T01:24:38.726Z,23.10
2022-08-25T01:27:42.488Z,23.10
2022-08-25T01:30:44.476Z,23.10
2022-08-25T01:33:46.236Z,23.10
2022-08-25T01:36:48.098Z,23.00
2022-08-25T01:39:50.163Z,23.10
2022-08-25T01:43:03.124Z,22.90
2022-08-25T01:46:05.248Z,23.00
2022-08-25T01:49:07.157Z,23.00
2022-08-25T01:52:28.297Z,22.90
2022-08-25T01:55:51.442Z,22.90
2022-08-25T01:58:53.655Z,22.80
2022-08-25T02:01:59.589Z,22.90
2022-08-25T02:05:02.985Z,22.60
2022-08-25T02:08:04.886Z,22.50
2022-08-25T02:11:11.969Z,22.70
2022-08-25T02:14:16.298Z,22.70
2022-08-25T02:17:17.999Z,22.70
2022-08-25T02:20:19.922Z,22.50
2022-08-25T02:23:21.688Z,22.50
2022-08-25T02:26:23.966Z,22.50
2022-08-25T02:29:26.275Z,22.50
2022-08-25T02:32:28.291Z,22.40
2022-08-25T02:35:30.366Z,22.40
2022-08-25T02:38:32.777Z,22.10
2022-08-25T02:41:35.207Z,22.20
2022-08-25T02:44:36.979Z,22.00
2022-08-25T02:47:38.746Z,22.10
2022-08-25T02:50:40.583Z,22.10
2022-08-25T02:53:43.055Z,21.90
2022-08-25T02:56:44.914Z,21.90
2022-08-25T02:59:48.459Z,21.90
2022-08-25T03:02:50.344Z,22.00
2022-08-25T03:05:52.268Z,21.90
2022-08-25T03:08:54.311Z,21.80
2022-08-25T03:11:56.041Z,21.80
2022-08-25T03:14:57.816Z,21.70
2022-08-25T03:18:02.263Z,21.70
2022-08-25T03:21:05.409Z,21.60
2022-08-25T03:24:07.449Z,21.60
2022-08-25T03:27:09.177Z,21.60
2022-08-25T03:30:11.639Z,21.60
2022-08-25T03:33:13.509Z,21.60
2022-08-25T03:36:15.646Z,21.40
2022-08-25T03:39:19.155Z,21.50
2022-08-25T03:42:21.134Z,21.60
2022-08-25T03:45:24.754Z,21.60
2022-08-25T03:48:26.477Z,21.50
2022-08-25T03:51:49.984Z,21.50
2022-08-25T03:54:51.910Z,21.30
2022-08-25T03:57:55.132Z,21.30
2022-08-25T04:01:00.273Z,21.20
2022-08-25T04:04:02.736Z,21.40
2022-08-25T04:07:05.169Z,21.50
2022-08-25T04:10:10.665Z,21.60
2022-08-25T04:13:12.619Z,21.20
2022-08-25T04:16:17.604Z,21.20
2022-08-25T04:19:20.592Z,21.20
2022-08-25T04:22:22.801Z,21.10
2022-08-25T04:25:24.917Z,21.10
2022-08-25T04:28:26.693Z,21.10
2022-08-25T04:31:31.591Z,21.10
2022-08-25T04:34:33.436Z,21.00
2022-08-25T04:37:35.265Z,21.10
2022-08-25T04:40:37.147Z,20.90
2022-08-25T04:43:40.983Z,21.00
2022-08-25T04:46:43.317Z,20.90
2022-08-25T04:49:45.049Z,20.90
2022-08-25T04:52:46.953Z,20.80
2022-08-25T04:55:49.108Z,20.70
2022-08-25T04:58:51.459Z,20.70
2022-08-25T05:01:53.382Z,20.70
2022-08-25T05:04:55.455Z,20.70
2022-08-25T05:07:57.669Z,20.60
2022-08-25T05:10:59.944Z,20.60
2022-08-25T05:14:05.506Z,20.70
2022-08-25T05:17:07.986Z,20.60
2022-08-25T05:20:10.191Z,20.70
2022-08-25T05:23:11.935Z,20.70
2022-08-25T05:26:20.727Z,20.70
2022-08-25T05:29:23.567Z,20.80
2022-08-25T05:32:25.293Z,20.80
2022-08-25T05:35:27.039Z,20.50
2022-08-25T05:38:29.039Z,20.70
2022-08-25T05:41:31.480Z,20.60
2022-08-25T05:44:33.305Z,20.80
2022-08-25T05:47:35.299Z,20.90
2022-08-25T05:50:37.023Z,20.90
2022-08-25T05:53:41.902Z,21.00
2022-08-25T05:56:45.365Z,20.90
2022-08-25T05:59:47.085Z,21.00
2022-08-25T06:02:49.653Z,21.10
2022-08-25T06:05:52.029Z,21.10
2022-08-25T06:08:53.838Z,21.20
2022-08-25T06:11:55.663Z,21.20
2022-08-25T06:14:57.383Z,21.20
2022-08-25T06:18:01.881Z,21.40
2022-08-25T06:21:12.817Z,21.40
2022-08-25T06:24:15.753Z,21.40
2022-08-25T06:27:18.756Z,21.50
2022-08-25T06:30:28.426Z,21.50
2022-08-25T06:33:31.505Z,21.60
2022-08-25T06:36:34.120Z,21.60
2022-08-25T06:39:35.900Z,21.60
2022-08-25T06:42:40.572Z,21.80
2022-08-25T06:45:44.179Z,21.80
2022-08-25T06:48:46.561Z,21.90
2022-08-25T06:51:48.960Z,21.90
2022-08-25T06:54:50.879Z,22.00
2022-08-25T06:57:55.126Z,22.10
2022-08-25T07:00:57.267Z,22.10
2022-08-25T07:04:01.740Z,22.20
2022-08-25T07:07:04.961Z,22.40
2022-08-25T07:10:07.645Z,22.50
2022-08-25T07:13:09.447Z,22.60
2022-08-25T07:16:11.444Z,22.70
2022-08-25T07:19:14.722Z,22.80
2022-08-25T07:22:16.590Z,23.00
2022-08-25T07:25:18.419Z,23.20
2022-08-25T07:28:22.601Z,23.30
2022-08-25T07:31:28.180Z,23.40
2022-08-25T07:34:52.327Z,23.60
2022-08-25T07:38:01.838Z,23.70
2022-08-25T07:41:04.816Z,23.80
2022-08-25T07:44:09.606Z,23.90
2022-08-25T07:47:11.714Z,24.10
2022-08-25T07:50:17.530Z,24.10
2022-08-25T07:53:19.380Z,24.30
2022-08-25T07:56:21.402Z,24.40
2022-08-25T07:59:23.376Z,24.50
2022-08-25T08:02:25.263Z,24.60
2022-08-25T08:05:28.558Z,24.80
2022-08-25T08:08:31.088Z,25.00
2022-08-25T08:11:43.762Z,25.10
2022-08-25T08:14:48.415Z,25.20
2022-08-25T08:17:50.400Z,25.20
2022-08-25T08:20:52.757Z,25.30
2022-08-25T08:23:58.859Z,25.50
2022-08-25T08:27:02.746Z,25.70
2022-08-25T08:30:06.513Z,25.70
2022-08-25T08:33:11.490Z,25.80
2022-08-25T08:36:14.618Z,25.80
2022-08-25T08:39:27.655Z,25.80
2022-08-25T08:42:32.625Z,25.70
2022-08-25T08:45:51.904Z,25.70
2022-08-25T08:49:38.856Z,25.70
2022-08-25T08:52:46.424Z,25.70
2022-08-25T08:56:04.924Z,25.70
2022-08-25T08:59:31.404Z,25.80
2022-08-25T09:02:51.839Z,25.90
2022-08-25T09:06:06.817Z,26.00
2022-08-25T09:09:14.355Z,26.20
2022-08-25T09:12:25.819Z,26.20
2022-08-25T09:16:06.578Z,26.20
2022-08-25T09:19:09.494Z,26.30
2022-08-25T09:22:34.884Z,26.40
2022-08-25T09:25:56.099Z,26.40
2022-08-25T09:29:23.494Z,26.50
2022-08-25T09:32:33.949Z,26.70
2022-08-25T09:35:40.371Z,26.70
2022-08-25T09:38:45.119Z,26.80
2022-08-25T09:41:59.173Z,26.80
2022-08-25T09:45:03.902Z,26.90
2022-08-25T09:48:43.244Z,26.90
2022-08-25T09:51:45.121Z,27.00
2022-08-25T09:54:51.250Z,27.10
2022-08-25T09:57:56.761Z,27.10
2022-08-25T10:01:16.575Z,27.20
2022-08-25T10:04:33.715Z,27.20
2022-08-25T10:07:48.081Z,27.40
2022-08-25T10:10:59.866Z,27.50
2022-08-25T10:14:21.705Z,27.60
2022-08-25T10:17:31.021Z,27.70
2022-08-25T10:20:35.567Z,28.00
2022-08-25T10:23:51.653Z,28.00
2022-08-25T10:27:15.461Z,27.90
2022-08-25T10:30:47.388Z,27.90
2022-08-25T10:33:51.956Z,28.00
2022-08-25T10:37:37.507Z,28.30
2022-08-25T10:40:47.891Z,28.30
2022-08-25T10:44:41.958Z,28.20
2022-08-25T10:48:01.244Z,28.20
2022-08-25T10:51:25.409Z,28.10
2022-08-25T10:55:00.767Z,28.10
2022-08-25T10:58:30.949Z,28.20
2022-08-25T11:01:45.165Z,28.40
2022-08-25T11:05:07.532Z,28.30
2022-08-25T11:08:15.818Z,28.40
2022-08-25T11:11:26.437Z,28.30
2022-08-25T11:14:57.818Z,28.40
2022-08-25T11:18:14.639Z,28.40
2022-08-25T11:21:22.161Z,28.50
2022-08-25T11:24:27.303Z,28.50
2022-08-25T11:27:56.238Z,28.60
2022-08-25T11:31:01.046Z,28.60
2022-08-25T11:34:02.930Z,28.70
2022-08-25T11:37:21.157Z,28.70
2022-08-25T11:40:40.828Z,28.60
2022-08-25T11:44:21.237Z,28.80
2022-08-25T11:47:45.253Z,28.90
2022-08-25T11:51:04.899Z,28.90
2022-08-25T11:54:28.223Z,29.00
2022-08-25T11:57:30.547Z,29.10
2022-08-25T12:00:41.861Z,29.00
2022-08-25T12:03:44.890Z,29.00
2022-08-25T12:07:05.651Z,28.90
2022-08-25T12:10:13.128Z,28.90
2022-08-25T12:13:42.483Z,28.80
2022-08-25T12:17:04.781Z,28.80
2022-08-25T12:20:07.954Z,28.90
2022-08-25T12:23:09.659Z,28.90
2022-08-25T12:26:46.193Z,28.90
2022-08-25T12:29:48.451Z,28.90
2022-08-25T12:33:01.973Z,29.00
2022-08-25T12:36:11.313Z,28.90
2022-08-25T12:39:24.209Z,29.00
2022-08-25T12:42:37.970Z,29.30
2022-08-25T12:45:43.531Z,29.40
2022-08-25T12:48:57.482Z,29.40
2022-08-25T12:52:12.746Z,29.30
2022-08-25T12:55:14.693Z,29.30
2022-08-25T12:58:17.073Z,29.20
2022-08-25T13:01:20.029Z,29.20
2022-08-25T13:04:43.827Z,29.40
2022-08-25T13:08:02.338Z,29.60
2022-08-25T13:11:23.897Z,29.50
2022-08-25T13:14:39.548Z,29.60
2022-08-25T13:17:41.840Z,29.50
2022-08-25T13:20:52.454Z,29.50
2022-08-25T13:24:04.693Z,29.60
2022-08-25T13:27:18.090Z,29.70
2022-08-25T13:30:34.829Z,29.70
2022-08-25T13:33:37.032Z,29.80
2022-08-25T13:37:06.242Z,29.80
2022-08-25T13:40:24.748Z,29.80
2022-08-25T13:43:28.187Z,29.80
2022-08-25T13:46:32.005Z,29.90
2022-08-25T13:49:39.713Z,29.90
2022-08-25T13:52:41.809Z,30.00
2022-08-25T13:55:50.932Z,30.00
2022-08-25T13:58:56.378Z,30.00
2022-08-25T14:01:59.989Z,29.90
2022-08-25T14:05:02.185Z,29.90
2022-08-25T14:08:16.348Z,29.90
2022-08-25T14:11:42.887Z,29.80
2022-08-25T14:15:20.732Z,29.80
2022-08-25T14:18:33.466Z,29.80
2022-08-25T14:21:40.894Z,29.80
2022-08-25T14:24:44.055Z,29.80
2022-08-25T14:28:10.866Z,29.80
2022-08-25T14:31:23.562Z,29.80
2022-08-25T14:34:30.479Z,29.80
2022-08-25T14:37:33.014Z,29.80
2022-08-25T14:40:35.504Z,29.80
2022-08-25T14:43:37.443Z,29.80
2022-08-25T14:46:53.280Z,29.90
2022-08-25T14:49:55.072Z,29.80
2022-08-25T14:53:04.079Z,29.80
2022-08-25T14:56:10.176Z,29.70
2022-08-25T14:59:12.412Z,29.70
2022-08-25T15:02:20.015Z,29.80
2022-08-25T15:05:28.239Z,29.80
2022-08-25T15:08:49.566Z,29.80
2022-08-25T15:11:55.476Z,29.80
2022-08-25T15:14:58.238Z,29.80
2022-08-25T15:18:01.227Z,29.90
2022-08-25T15:21:03.454Z,29.90
2022-08-25T15:24:08.848Z,29.80
2022-08-25T15:27:14.617Z,29.90
2022-08-25T15:30:17.185Z,29.90
2022-08-25T15:33:20.355Z,29.90
2022-08-25T15:36:24.714Z,30.00
2022-08-25T15:39:27.560Z,29.90
2022-08-25T15:42:29.436Z,30.00
2022-08-25T15:45:32.887Z,29.90
2022-08-25T15:48:35.798Z,29.90
2022-08-25T15:51:38.225Z,29.80
2022-08-25T15:54:40.187Z,29.80
2022-08-25T15:57:42.433Z,29.70
2022-08-25T16:00:45.357Z,29.70
2022-08-25T16:03:58.219Z,29.70
2022-08-25T16:07:00.766Z,29.70
2022-08-25T16:10:04.987Z,29.80
2022-08-25T16:13:07.616Z,29.70
2022-08-25T16:16:10.703Z,29.70
2022-08-25T16:19:14.949Z,29.60
2022-08-25T16:22:16.911Z,29.70
2022-08-25T16:25:19.031Z,29.70
2022-08-25T16:28:24.339Z,29.70
2022-08-25T16:31:26.796Z,29.70
2022-08-25T16:34:30.879Z,29.70
2022-08-25T16:37:36.619Z,29.70
2022-08-25T16:40:40.886Z,29.70
2022-08-25T16:43:43.799Z,29.70
2022-08-25T16:46:46.011Z,29.60
2022-08-25T16:49:49.076Z,29.60
2022-08-25T16:53:09.710Z,29.60
2022-08-25T16:56:12.208Z,29.60
2022-08-25T16:59:14.485Z,29.60
2022-08-25T17:02:16.390Z,29.60
2022-08-25T17:05:20.674Z,29.60
2022-08-25T17:08:28.725Z,29.60
2022-08-25T17:11:35.166Z,29.60
2022-08-25T17:14:37.295Z,29.50
2022-08-25T17:17:39.022Z,29.40
2022-08-25T17:20:44.666Z,29.40
2022-08-25T17:23:47.192Z,29.30
2022-08-25T17:26:53.003Z,29.30
2022-08-25T17:29:55.039Z,29.30
2022-08-25T17:32:58.182Z,29.20
2022-08-25T17:36:00.388Z,29.20
2022-08-25T17:39:02.918Z,29.20
2022-08-25T17:42:04.867Z,29.10
2022-08-25T17:45:07.065Z,29.10
2022-08-25T17:48:09.592Z,29.00
2022-08-25T17:51:11.513Z,29.00
2022-08-25T17:54:13.717Z,28.90
2022-08-25T17:57:16.139Z,28.90
2022-08-25T18:00:20.333Z,28.90
2022-08-25T18:03:22.946Z,28.90
2022-08-25T18:06:27.064Z,28.80
2022-08-25T18:09:28.831Z,28.80
2022-08-25T18:12:30.591Z,28.80
2022-08-25T18:15:33.938Z,28.70
2022-08-25T18:18:37.574Z,28.70
2022-08-25T18:21:40.403Z,28.60
2022-08-25T18:24:45.309Z,28.60
2022-08-25T18:27:47.021Z,28.50
2022-08-25T18:30:48.949Z,28.60
2022-08-25T18:33:52.354Z,28.50
2022-08-25T18:36:54.133Z,28.50
2022-08-25T18:40:15.303Z,28.40
2022-08-25T18:43:17.611Z,28.30
2022-08-25T18:46:22.732Z,28.20
2022-08-25T18:49:26.752Z,28.10
2022-08-25T18:52:30.436Z,28.10
2022-08-25T18:55:33.645Z,28.10
2022-08-25T18:58:36.074Z,28.00
2022-08-25T19:01:38.325Z,28.00
2022-08-25T19:04:40.497Z,28.00
2022-08-25T19:07:45.639Z,27.90
2022-08-25T19:10:54.223Z,27.80
2022-08-25T19:13:56.153Z,27.80
2022-08-25T19:16:58.683Z,27.70
2022-08-25T19:20:01.303Z,27.60
2022-08-25T19:23:04.198Z,27.60
2022-08-25T19:26:13.778Z,27.50
2022-08-25T19:29:19.414Z,27.50
2022-08-25T19:32:21.562Z,27.40
2022-08-25T19:35:30.911Z,27.40
2022-08-25T19:38:35.300Z,27.30
2022-08-25T19:41:38.065Z,27.20
2022-08-25T19:44:40.720Z,27.10
2022-08-25T19:47:43.568Z,27.10
2022-08-25T19:50:45.585Z,27.00
2022-08-25T19:53:50.153Z,27.00
2022-08-25T19:56:57.309Z,27.00
2022-08-25T19:59:59.308Z,27.00
2022-08-25T20:03:01.854Z,27.00
2022-08-25T20:06:03.979Z,27.00
2022-08-25T20:09:06.204Z,27.00
2022-08-25T20:12:10.393Z,26.90
2022-08-25T20:15:13.903Z,26.90
2022-08-25T20:18:18.378Z,26.80
2022-08-25T20:21:20.514Z,26.80
2022-08-25T20:24:41.029Z,26.80
2022-08-25T20:27:48.111Z,26.80
2022-08-25T20:30:50.234Z,26.60
2022-08-25T20:33:52.015Z,26.60
2022-08-25T20:36:55.043Z,26.50
2022-08-25T20:39:58.345Z,26.50
2022-08-25T20:43:04.422Z,26.50
2022-08-25T20:46:08.091Z,26.40
2022-08-25T20:49:10.075Z,26.40
2022-08-25T20:52:12.066Z,26.40
2022-08-25T20:55:14.948Z,26.20
2022-08-25T20:58:19.583Z,26.20
2022-08-25T21:01:37.399Z,26.20
2022-08-25T21:04:50.125Z,26.10
2022-08-25T21:07:52.489Z,26.00
2022-08-25T21:10:54.255Z,26.00
2022-08-25T21:13:57.563Z,25.90
2022-08-25T21:16:59.715Z,25.80
2022-08-25T21:20:02.610Z,25.80
2022-08-25T21:23:08.106Z,25.70
2022-08-25T21:26:19.983Z,25.70
2022-08-25T21:29:22.915Z,25.70
2022-08-25T21:32:26.334Z,25.70
2022-08-25T21:35:28.689Z,25.70
2022-08-25T21:38:31.757Z,25.50
2022-08-25T21:41:35.445Z,25.50
2022-08-25T21:44:38.798Z,25.50
2022-08-25T21:47:42.464Z,25.40
2022-08-25T21:50:44.493Z,25.40
2022-08-25T21:53:47.450Z,25.40
2022-08-25T21:56:52.667Z,25.30
2022-08-25T21:59:55.970Z,25.30
2022-08-25T22:03:00.880Z,25.30
2022-08-25T22:06:03.616Z,25.30
2022-08-25T22:09:07.624Z,25.30
2022-08-25T22:12:10.293Z,25.20
2022-08-25T22:15:14.519Z,25.30
2022-08-25T22:18:16.302Z,25.10
2022-08-25T22:21:20.694Z,25.20
2022-08-25T22:24:28.116Z,25.10
2022-08-25T22:27:31.784Z,25.10
2022-08-25T22:30:34.021Z,25.00
2022-08-25T22:33:36.395Z,24.90
2022-08-25T22:36:42.914Z,24.90
2022-08-25T22:39:45.487Z,24.70
2022-08-25T22:42:48.180Z,24.70
2022-08-25T22:46:00.370Z,24.80
2022-08-25T22:49:02.429Z,24.70
2022-08-25T22:52:04.562Z,24.70
2022-08-25T22:55:11.249Z,24.70
2022-08-25T22:58:14.627Z,24.60
2022-08-25T23:01:18.759Z,24.60
2022-08-25T23:04:20.785Z,24.60
2022-08-25T23:07:23.957Z,24.60
2022-08-25T23:10:26.271Z,24.50
2022-08-25T23:13:34.357Z,24.40
2022-08-25T23:16:38.570Z,24.40
2022-08-25T23:19:40.550Z,24.30
2022-08-25T23:22:42.654Z,24.30
2022-08-25T23:25:44.795Z,24.30
2022-08-25T23:28:47.609Z,24.30
2022-08-25T23:31:50.740Z,24.30
2022-08-25T23:34:53.263Z,24.20
2022-08-25T23:37:54.997Z,24.30
2022-08-25T23:40:57.324Z,24.10
2022-08-25T23:43:59.176Z,24.10
2022-08-25T23:47:00.933Z,24.20
2022-08-25T23:50:03.011Z,24.10
2022-08-25T23:53:05.744Z,24.00
2022-08-25T23:56:07.611Z,23.90
2022-08-25T23:59:10.732Z,24.00
